Time;durP1;ratioP1;P1;durP2;ratioP2;P2;SDS_P1;SDS_P2;PMS_P1;PMS_P2;Temp;Humidity;BMP_temperature;BMP_pressure;BME280_temperature;BME280_humidity;BME280_pressure;Samples;Min_cycle;Max_cycle;Signal;HPM_P1;HPM_P2
2023/04/01 00:02:01;;;;;;;3.43;1.40;;;11.20;83.30;;;;;;5043629;28;20398;-74
2023/04/01 00:04:27;;;;;;;4.50;1.37;;;11.20;81.90;;;;;;5036957;28;20426;-75
2023/04/01 00:06:52;;;;;;;6.40;1.60;;;11.20;82.40;;;;;;5048943;28;20400;-74
2023/04/01 00:09:18;;;;;;;4.53;1.27;;;11.20;82.90;;;;;;5049506;28;20383;-74
2023/04/01 00:11:45;;;;;;;5.07;1.30;;;11.20;83.30;;;;;;5034407;28;20391;-75
2023/04/01 00:14:11;;;;;;;3.83;1.48;;;11.20;84.80;;;;;;5033586;28;20852;-74
2023/04/01 00:16:37;;;;;;;5.88;1.75;;;11.10;85.10;;;;;;5036795;28;20420;-74
2023/04/01 00:19:03;;;;;;;4.10;1.15;;;11.10;84.80;;;;;;5045808;28;20760;-74
2023/04/01 00:21:28;;;;;;;3.27;1.20;;;11.20;86.00;;;;;;5034691;28;20407;-74
2023/04/01 00:23:54;;;;;;;6.50;1.30;;;11.10;86.40;;;;;;5024547;28;20404;-74
2023/04/01 00:26:21;;;;;;;2.73;1.10;;;11.10;87.10;;;;;;5031380;28;20514;-74
2023/04/01 00:28:47;;;;;;;6.30;1.40;;;11.10;87.30;;;;;;5032169;28;20387;-75
2023/04/01 00:31:14;;;;;;;2.07;0.97;;;11.10;86.70;;;;;;5033739;28;20397;-75
2023/04/01 00:33:40;;;;;;;6.10;1.30;;;11.10;87.20;;;;;;5032821;28;20391;-74
2023/04/01 00:36:15;;;;;;;3.75;1.20;;;11.10;86.90;;;;;;5032228;28;20768;-73
2023/04/01 00:38:42;;;;;;;3.10;1.25;;;11.10;86.30;;;;;;5031127;28;20399;-73
2023/04/01 00:41:08;;;;;;;2.97;1.10;;;11.10;84.20;;;;;;5032769;28;20394;-74
2023/04/01 00:43:35;;;;;;;4.30;1.15;;;11.10;85.50;;;;;;5032466;28;20394;-74
2023/04/01 00:46:00;;;;;;;1.48;1.05;;;11.10;86.10;;;;;;5031948;28;20406;-74
2023/04/01 00:48:32;;;;;;;2.70;1.10;;;11.10;85.90;;;;;;5031885;28;20760;-74
2023/04/01 00:51:35;;;;;;;3.65;1.10;;;11.10;86.10;;;;;;5031529;28;20878;-74
2023/04/01 00:54:03;;;;;;;3.20;0.90;;;11.10;85.10;;;;;;5014718;28;20470;-73
2023/04/01 00:56:44;;;;;;;2.30;0.80;;;11.10;83.50;;;;;;5032040;28;20478;-74
2023/04/01 00:59:18;;;;;;;4.78;1.23;;;11.10;84.30;;;;;;5031808;28;20753;-73
2023/04/01 01:01:44;;;;;;;1.70;1.07;;;11.10;83.70;;;;;;5031459;28;20975;-73
2023/04/01 01:04:25;;;;;;;2.67;0.90;;;11.10;83.40;;;;;;5031678;28;20387;-73
2023/04/01 01:07:10;;;;;;;2.80;1.05;;;11.10;83.30;;;;;;5031136;28;20435;-73
2023/04/01 01:10:08;;;;;;;3.80;1.30;;;11.10;83.20;;;;;;5046854;28;20426;-73
2023/04/01 01:13:00;;;;;;;2.80;1.10;;;11.10;82.40;;;;;;5031257;28;20884;-73
2023/04/01 01:15:48;;;;;;;2.20;1.10;;;11.10;82.50;;;;;;5031703;28;20693;-73
2023/04/01 01:18:17;;;;;;;3.67;1.20;;;11.10;82.00;;;;;;5031068;28;20431;-73
2023/04/01 01:20:58;;;;;;;3.65;1.10;;;11.10;81.60;;;;;;5031741;28;20398;-73
2023/04/01 01:23:51;;;;;;;2.20;1.00;;;11.10;81.50;;;;;;5031255;28;20396;-73
2023/04/01 01:26:26;;;;;;;2.70;1.10;;;11.10;81.90;;;;;;5031040;28;20464;-73
2023/04/01 01:29:13;;;;;;;3.80;1.00;;;11.10;82.30;;;;;;5030958;28;20382;-73
2023/04/01 01:31:54;;;;;;;5.00;1.20;;;11.10;83.10;;;;;;5030871;28;20407;-73
2023/04/01 01:34:27;;;;;;;3.40;1.10;;;11.10;82.10;;;;;;5030981;28;20485;-73
2023/04/01 01:36:58;;;;;;;4.43;1.00;;;11.00;83.70;;;;;;5030802;28;20387;-73
2023/04/01 01:39:29;;;;;;;2.90;1.20;;;11.10;81.50;;;;;;5030954;28;20379;-73
2023/04/01 01:41:57;;;;;;;1.80;0.95;;;11.10;82.00;;;;;;5030578;28;20463;-73
2023/04/01 01:44:26;;;;;;;3.22;1.00;;;11.10;83.60;;;;;;5030847;28;20411;-73
2023/04/01 01:46:51;;;;;;;2.50;0.90;;;11.00;84.90;;;;;;5030566;28;20904;-73
2023/04/01 01:49:19;;;;;;;3.15;0.90;;;11.10;86.20;;;;;;5030674;28;20402;-73
2023/04/01 01:51:45;;;;;;;3.10;1.10;;;11.00;87.90;;;;;;5030763;28;20387;-74
2023/04/01 01:54:15;;;;;;;2.65;1.35;;;11.00;89.90;;;;;;5030018;28;20740;-74
2023/04/01 01:56:43;;;;;;;5.03;1.50;;;11.00;90.00;;;;;;5030650;28;20872;-74
2023/04/01 01:59:12;;;;;;;3.72;1.00;;;10.90;91.10;;;;;;5030646;28;20485;-72
2023/04/01 02:01:42;;;;;;;1.55;0.90;;;10.90;88.10;;;;;;5030453;28;20394;-74
2023/04/01 02:04:09;;;;;;;2.30;1.00;;;10.90;89.30;;;;;;5030542;28;20875;-73
2023/04/01 02:06:39;;;;;;;2.47;0.90;;;10.90;88.40;;;;;;5030589;28;20779;-73
2023/04/01 02:09:10;;;;;;;7.50;1.40;;;10.90;90.40;;;;;;5030574;28;20386;-74
2023/04/01 02:11:48;;;;;;;3.80;1.20;;;10.90;89.30;;;;;;5030392;28;20387;-74
2023/04/01 02:14:21;;;;;;;1.85;0.90;;;11.00;87.90;;;;;;5030568;28;20383;-73
2023/04/01 02:16:59;;;;;;;2.90;0.75;;;10.90;88.50;;;;;;5030727;28;20594;-74
2023/04/01 02:19:31;;;;;;;2.92;1.00;;;11.00;87.80;;;;;;5030901;28;20417;-74
2023/04/01 02:22:01;;;;;;;1.13;0.80;;;11.00;89.00;;;;;;5030179;28;20379;-74
2023/04/01 02:24:29;;;;;;;2.40;1.02;;;10.80;91.10;;;;;;5030439;28;20466;-73
2023/04/01 02:26:55;;;;;;;2.50;1.00;;;10.70;93.30;;;;;;5030719;28;20422;-73
2023/04/01 02:29:23;;;;;;;2.60;1.10;;;10.70;93.90;;;;;;5030533;28;20419;-73
2023/04/01 02:31:50;;;;;;;3.63;1.08;;;10.80;93.60;;;;;;5030486;28;20375;-73
2023/04/01 02:34:16;;;;;;;2.63;0.90;;;10.80;93.20;;;;;;5030713;28;20442;-74
2023/04/01 02:36:42;;;;;;;1.70;0.90;;;10.80;94.90;;;;;;5046333;28;20395;-73
2023/04/01 02:39:08;;;;;;;1.70;0.90;;;10.80;95.50;;;;;;5031587;28;20810;-74
2023/04/01 02:41:42;;;;;;;2.97;1.00;;;10.70;95.10;;;;;;5031896;28;20387;-74
2023/04/01 02:44:09;;;;;;;3.00;1.33;;;10.80;93.30;;;;;;5030821;28;20883;-72
2023/04/01 02:46:35;;;;;;;3.53;1.00;;;10.70;95.10;;;;;;5031595;28;20446;-73
2023/04/01 02:49:00;;;;;;;2.45;1.15;;;10.80;93.60;;;;;;5032789;28;20864;-72
2023/04/01 02:51:26;;;;;;;4.53;0.93;;;10.80;93.80;;;;;;5034255;28;20391;-73
2023/04/01 02:53:52;;;;;;;1.38;0.93;;;10.70;95.80;;;;;;5034314;28;20387;-73
2023/04/01 02:56:19;;;;;;;2.23;1.00;;;10.70;94.90;;;;;;5039544;28;20387;-73
2023/04/01 02:58:45;;;;;;;5.00;0.90;;;10.70;97.40;;;;;;5033797;28;20414;-73
2023/04/01 03:01:10;;;;;;;2.55;0.90;;;10.70;99.20;;;;;;5037388;28;21434;-73
2023/04/01 03:03:36;;;;;;;3.90;1.20;;;10.60;99.60;;;;;;5037893;28;20442;-72
2023/04/01 03:06:09;;;;;;;3.30;0.90;;;10.60;99.90;;;;;;5034310;28;20403;-73
2023/04/01 03:08:35;;;;;;;4.50;0.80;;;10.70;98.00;;;;;;5035657;28;20809;-75
2023/04/01 03:11:01;;;;;;;1.10;0.80;;;10.70;97.00;;;;;;5034115;28;20466;-74
2023/04/01 03:13:26;;;;;;;1.50;0.90;;;10.70;96.70;;;;;;5034086;28;20717;-74
2023/04/01 03:15:53;;;;;;;2.88;1.10;;;10.70;95.50;;;;;;5048941;28;20418;-74
2023/04/01 03:18:19;;;;;;;2.97;0.90;;;10.70;96.20;;;;;;5034137;28;20411;-76
2023/04/01 03:20:44;;;;;;;2.33;0.80;;;10.70;96.40;;;;;;5034308;28;20393;-74
2023/04/01 03:23:10;;;;;;;2.45;0.98;;;10.70;95.00;;;;;;5033712;28;20391;-75
2023/04/01 03:25:36;;;;;;;2.88;0.80;;;10.70;95.80;;;;;;5033946;28;20405;-74
2023/04/01 03:28:02;;;;;;;3.08;0.70;;;10.70;95.70;;;;;;5033545;28;20470;-76
2023/04/01 03:30:28;;;;;;;1.80;0.77;;;10.70;95.90;;;;;;5033530;28;20387;-75
2023/04/01 03:32:53;;;;;;;2.03;0.82;;;10.70;96.10;;;;;;5048739;28;20395;-75
2023/04/01 03:35:19;;;;;;;1.80;0.98;;;10.70;96.40;;;;;;5033456;28;20942;-74
2023/04/01 03:37:44;;;;;;;1.30;0.80;;;10.70;95.10;;;;;;5033161;28;20383;-74
2023/04/01 03:40:10;;;;;;;1.90;0.90;;;10.70;95.00;;;;;;5033417;28;20457;-74
2023/04/01 03:42:36;;;;;;;1.80;0.60;;;10.70;94.90;;;;;;5033236;28;20448;-74
2023/04/01 03:45:03;;;;;;;1.83;0.90;;;10.70;93.40;;;;;;5033326;28;20411;-74
2023/04/01 03:47:29;;;;;;;1.70;0.75;;;10.70;95.50;;;;;;5033524;28;20744;-74
2023/04/01 03:49:54;;;;;;;1.27;0.80;;;10.70;95.10;;;;;;5033309;28;20475;-74
2023/04/01 03:52:20;;;;;;;2.20;1.00;;;10.70;94.00;;;;;;5033293;28;20383;-74
2023/04/01 03:54:46;;;;;;;1.33;0.80;;;10.70;95.90;;;;;;5033122;28;20937;-74
2023/04/01 03:57:11;;;;;;;1.83;1.00;;;10.70;95.20;;;;;;5032955;28;20441;-74
2023/04/01 03:59:37;;;;;;;2.33;0.70;;;10.70;94.50;;;;;;5033572;28;20458;-74
2023/04/01 04:02:03;;;;;;;1.47;0.87;;;10.70;94.60;;;;;;5033098;28;20383;-74
2023/04/01 04:04:29;;;;;;;2.43;0.73;;;10.70;94.30;;;;;;5033357;28;20848;-75
2023/04/01 04:06:56;;;;;;;2.13;0.98;;;10.70;95.00;;;;;;5033239;28;20403;-74
2023/04/01 04:09:22;;;;;;;2.42;0.80;;;10.70;95.80;;;;;;5033332;28;20430;-75
2023/04/01 04:11:48;;;;;;;1.17;0.98;;;10.70;97.00;;;;;;5034233;28;20394;-75
2023/04/01 04:14:14;;;;;;;3.13;1.17;;;10.70;97.20;;;;;;5033636;28;20383;-75
2023/04/01 04:16:39;;;;;;;1.20;0.80;;;10.70;96.90;;;;;;5032850;28;20441;-75
2023/04/01 04:19:05;;;;;;;3.10;0.93;;;10.70;96.90;;;;;;5033066;28;20481;-75
2023/04/01 04:21:31;;;;;;;2.60;0.80;;;10.70;99.90;;;;;;5032917;28;20406;-75
2023/04/01 04:23:59;;;;;;;1.10;0.90;;;10.70;99.40;;;;;;5032633;28;20394;-75
2023/04/01 04:26:25;;;;;;;2.10;0.93;;;10.70;99.90;;;;;;5032721;28;20813;-75
2023/04/01 04:28:51;;;;;;;1.70;0.90;;;10.70;99.60;;;;;;5033050;28;20390;-74
2023/04/01 04:31:24;;;;;;;0.82;0.77;;;10.70;99.10;;;;;;5032465;28;20390;-75
2023/04/01 04:33:51;;;;;;;2.70;1.00;;;10.70;99.50;;;;;;5032698;28;20387;-75
2023/04/01 04:36:17;;;;;;;1.33;0.80;;;10.70;99.10;;;;;;5032840;28;20725;-74
2023/04/01 04:38:43;;;;;;;1.85;0.95;;;10.70;97.90;;;;;;5032423;28;20420;-74
2023/04/01 04:41:11;;;;;;;1.60;0.80;;;10.70;99.90;;;;;;5032363;28;20852;-74
2023/04/01 04:43:37;;;;;;;1.40;0.80;;;10.70;99.90;;;;;;5032637;28;20395;-75
2023/04/01 04:46:09;;;;;;;2.30;1.00;;;10.70;99.90;;;;;;5032280;28;20415;-74
2023/04/01 04:48:35;;;;;;;2.27;1.00;;;10.60;99.90;;;;;;5032422;28;20445;-75
2023/04/01 04:51:01;;;;;;;3.03;1.00;;;10.60;99.90;;;;;;5047571;28;20423;-75
2023/04/01 04:53:27;;;;;;;1.95;1.00;;;10.70;99.90;;;;;;5032164;28;20387;-75
2023/04/01 04:55:53;;;;;;;2.20;0.95;;;10.70;99.90;;;;;;5035696;28;20390;-74
2023/04/01 04:58:18;;;;;;;1.50;1.17;;;10.70;99.90;;;;;;5039970;28;20417;-74
2023/04/01 05:00:45;;;;;;;3.63;1.37;;;10.70;99.90;;;;;;5032239;28;20417;-74
2023/04/01 05:03:12;;;;;;;2.53;1.30;;;10.70;99.90;;;;;;5031979;28;20779;-74
2023/04/01 05:05:38;;;;;;;1.90;1.70;;;10.70;99.90;;;;;;5032229;28;20474;-75
2023/04/01 05:08:04;;;;;;;3.30;1.40;;;10.70;99.90;;;;;;5032243;28;20391;-74
2023/04/01 05:10:31;;;;;;;6.47;2.13;;;10.70;99.80;;;;;;5030757;28;20409;-74
2023/04/01 05:12:57;;;;;;;2.88;1.98;;;10.70;99.90;;;;;;5031812;28;20395;-75
2023/04/01 05:15:23;;;;;;;3.10;2.03;;;10.70;99.90;;;;;;5031774;28;20482;-74
2023/04/01 05:17:49;;;;;;;2.47;2.10;;;10.70;99.90;;;;;;5032005;28;20485;-74
2023/04/01 05:20:15;;;;;;;2.90;2.35;;;10.70;99.90;;;;;;5032286;28;20379;-75
2023/04/01 05:22:40;;;;;;;3.10;2.50;;;10.60;99.90;;;;;;5037378;28;20453;-75
2023/04/01 05:25:06;;;;;;;4.60;3.10;;;10.60;99.90;;;;;;5044492;28;20438;-74
2023/04/01 05:27:32;;;;;;;2.70;2.50;;;10.60;99.90;;;;;;5033714;28;20383;-75
2023/04/01 05:29:58;;;;;;;4.72;2.70;;;10.60;99.90;;;;;;5030891;28;20748;-74
2023/04/01 05:32:24;;;;;;;2.53;2.30;;;10.60;99.90;;;;;;5031681;28;20445;-74
2023/04/01 05:34:53;;;;;;;2.40;2.30;;;10.60;99.90;;;;;;5031891;28;20791;-75
2023/04/01 05:37:19;;;;;;;3.90;3.20;;;10.60;99.90;;;;;;5032035;28;20414;-75
2023/04/01 05:39:44;;;;;;;3.25;3.00;;;10.60;99.90;;;;;;5031674;28;20402;-75
2023/04/01 05:42:10;;;;;;;3.67;2.90;;;10.60;99.90;;;;;;5031889;28;20390;-74
2023/04/01 05:44:36;;;;;;;4.28;3.40;;;10.70;99.90;;;;;;5031635;28;20462;-74
2023/04/01 05:47:03;;;;;;;4.47;3.13;;;10.70;99.90;;;;;;5031868;28;20383;-75
2023/04/01 05:49:29;;;;;;;2.90;2.70;;;10.70;99.90;;;;;;5031975;28;20383;-75
2023/04/01 05:51:55;;;;;;;3.00;2.80;;;10.70;99.90;;;;;;5032094;28;20776;-75
2023/04/01 05:54:21;;;;;;;5.93;3.00;;;10.70;99.90;;;;;;5041216;28;20380;-73
2023/04/01 05:56:46;;;;;;;3.25;2.95;;;10.60;99.90;;;;;;5040192;28;20422;-75
2023/04/01 05:59:12;;;;;;;4.00;2.90;;;10.60;99.90;;;;;;5044620;28;20371;-73
2023/04/01 06:01:38;;;;;;;3.25;2.83;;;10.60;99.90;;;;;;5052405;28;20371;-73
2023/04/01 06:04:04;;;;;;;4.68;3.30;;;10.60;99.90;;;;;;5050753;28;20788;-73
2023/04/01 06:06:31;;;;;;;5.43;3.78;;;10.50;99.90;;;;;;5050768;28;20415;-75
2023/04/01 06:09:05;;;;;;;5.88;3.45;;;10.50;99.90;;;;;;5031802;28;20383;-74
2023/04/01 06:11:54;;;;;;;5.93;4.10;;;10.60;99.90;;;;;;5031268;28;20383;-74
2023/04/01 06:14:49;;;;;;;6.20;4.03;;;10.60;99.90;;;;;;5031896;28;20383;-74
2023/04/01 06:17:17;;;;;;;6.00;3.95;;;10.70;99.90;;;;;;5030903;28;20399;-74
2023/04/01 06:19:58;;;;;;;4.73;4.20;;;10.80;99.90;;;;;;5031307;28;20402;-75
2023/04/01 06:22:47;;;;;;;5.70;4.70;;;10.80;99.90;;;;;;5030985;28;20394;-75
2023/04/01 06:25:30;;;;;;;6.05;4.20;;;10.80;99.90;;;;;;5031294;28;20895;-72
2023/04/01 06:28:05;;;;;;;4.20;3.80;;;10.90;99.90;;;;;;5031349;28;20387;-75
2023/04/01 06:31:01;;;;;;;4.50;4.10;;;11.00;99.90;;;;;;5046153;28;20390;-74
2023/04/01 06:33:47;;;;;;;6.40;4.00;;;11.10;98.80;;;;;;5030288;28;20395;-74
2023/04/01 06:36:22;;;;;;;5.97;3.37;;;11.10;99.50;;;;;;5030683;28;20880;-75
2023/04/01 06:39:16;;;;;;;5.05;3.90;;;11.00;99.90;;;;;;5030705;28;20787;-75
2023/04/01 06:41:47;;;;;;;5.97;4.32;;;11.00;99.50;;;;;;5034806;28;20417;-75
2023/04/01 06:44:27;;;;;;;5.50;4.43;;;10.90;99.90;;;;;;5050267;28;20406;-75
2023/04/01 06:47:23;;;;;;;6.07;4.20;;;10.80;99.90;;;;;;5034599;28;20407;-75
2023/04/01 06:50:04;;;;;;;4.40;3.90;;;10.90;99.90;;;;;;5034638;28;20390;-76
2023/04/01 06:53:06;;;;;;;5.22;4.72;;;10.80;99.90;;;;;;5050085;28;20456;-75
2023/04/01 06:55:37;;;;;;;4.53;3.50;;;10.80;99.90;;;;;;5034643;28;20382;-74
2023/04/01 06:58:05;;;;;;;7.30;3.80;;;10.80;99.90;;;;;;5034609;28;20402;-75
2023/04/01 07:00:39;;;;;;;3.40;2.97;;;10.80;99.90;;;;;;5034462;28;20395;-74
2023/04/01 07:03:32;;;;;;;3.00;2.80;;;10.80;99.90;;;;;;5021257;28;20426;-75
2023/04/01 07:06:23;;;;;;;3.57;2.60;;;10.80;99.90;;;;;;5033769;28;20501;-76
2023/04/01 07:08:50;;;;;;;2.80;2.30;;;10.90;99.90;;;;;;5027330;28;20433;-75
2023/04/01 07:11:26;;;;;;;2.58;2.38;;;10.90;99.90;;;;;;5033854;28;20736;-75
2023/04/01 07:13:58;;;;;;;2.50;2.20;;;11.00;99.90;;;;;;5025020;28;20483;-75
2023/04/01 07:16:38;;;;;;;3.45;2.15;;;10.90;99.90;;;;;;5032600;28;20387;-74
2023/04/01 07:19:32;;;;;;;2.20;2.00;;;10.90;99.90;;;;;;5049232;28;20884;-75
2023/04/01 07:22:05;;;;;;;2.90;2.45;;;10.90;99.90;;;;;;5033722;28;20393;-75
2023/04/01 07:24:37;;;;;;;3.40;2.53;;;11.00;99.90;;;;;;5033411;28;20403;-75
2023/04/01 07:27:09;;;;;;;2.60;2.40;;;11.00;98.30;;;;;;5032240;28;20398;-75
2023/04/01 07:29:35;;;;;;;2.30;2.10;;;11.00;99.90;;;;;;5033670;28;20425;-74
2023/04/01 07:32:22;;;;;;;2.10;2.00;;;11.00;99.40;;;;;;5033391;28;20884;-74
2023/04/01 07:35:41;;;;;;;2.50;2.33;;;11.10;97.90;;;;;;5033746;28;20390;-75
2023/04/01 07:38:15;;;;;;;2.10;2.00;;;11.00;99.40;;;;;;5016693;28;20414;-75
2023/04/01 07:40:46;;;;;;;2.30;2.20;;;11.10;96.70;;;;;;5034487;28;20430;-79
2023/04/01 07:43:25;;;;;;;2.90;1.75;;;11.10;98.00;;;;;;5039931;28;20410;-76
2023/04/01 07:46:05;;;;;;;4.63;2.05;;;11.10;97.40;;;;;;5041064;28;20454;-76
2023/04/01 07:48:59;;;;;;;2.50;2.30;;;11.00;99.20;;;;;;5039662;28;20824;-77
2023/04/01 07:51:52;;;;;;;2.70;1.92;;;11.00;99.90;;;;;;5020829;28;20388;-75
2023/04/01 07:54:28;;;;;;;2.10;1.70;;;11.00;99.60;;;;;;5041921;28;20417;-75
2023/04/01 07:57:22;;;;;;;2.70;2.10;;;10.90;98.30;;;;;;5053237;28;20730;-75
2023/04/01 07:59:59;;;;;;;1.88;1.77;;;10.90;99.90;;;;;;5047723;28;20395;-75
2023/04/01 08:02:48;;;;;;;2.75;2.00;;;10.90;99.90;;;;;;5039735;28;20383;-75
2023/04/01 08:05:27;;;;;;;3.00;2.30;;;11.00;99.90;;;;;;5036308;28;20437;-76
2023/04/01 08:08:04;;;;;;;2.20;1.95;;;11.00;99.90;;;;;;5039468;28;20451;-78
2023/04/01 08:10:43;;;;;;;3.53;2.60;;;11.00;99.70;;;;;;5033851;28;20383;-76
2023/04/01 08:13:20;;;;;;;3.10;2.70;;;11.00;99.30;;;;;;5032717;28;20375;-75
2023/04/01 08:16:06;;;;;;;5.38;2.88;;;11.10;97.40;;;;;;5035111;28;20876;-77
2023/04/01 08:18:38;;;;;;;3.10;2.20;;;11.10;97.90;;;;;;5034069;28;20403;-76
2023/04/01 08:21:14;;;;;;;1.98;1.88;;;11.20;96.80;;;;;;5035855;28;20395;-78
2023/04/01 08:23:47;;;;;;;2.35;2.00;;;11.20;93.40;;;;;;5036915;28;20379;-75
2023/04/01 08:26:15;;;;;;;2.25;2.03;;;11.30;94.70;;;;;;5032591;28;20418;-78
2023/04/01 08:28:51;;;;;;;2.23;2.13;;;11.30;94.80;;;;;;5023554;28;20402;-77
2023/04/01 08:31:35;;;;;;;2.10;2.00;;;11.30;95.80;;;;;;5030901;28;20887;-77
2023/04/01 08:34:13;;;;;;;3.30;2.30;;;11.30;96.20;;;;;;5038236;28;20407;-79
2023/04/01 08:36:44;;;;;;;2.53;2.33;;;11.30;95.90;;;;;;5036228;28;20399;-77
2023/04/01 08:39:18;;;;;;;2.10;1.90;;;11.30;95.50;;;;;;5039384;28;20403;-76
2023/04/01 08:42:00;;;;;;;3.80;2.30;;;11.30;93.50;;;;;;5043525;28;20462;-78
2023/04/01 08:44:29;;;;;;;2.55;2.20;;;11.30;93.00;;;;;;5039315;28;20399;-78
2023/04/01 08:47:12;;;;;;;2.63;2.40;;;11.20;96.50;;;;;;5038934;28;20540;-77
2023/04/01 08:50:11;;;;;;;3.50;2.75;;;11.30;96.60;;;;;;5036186;28;20478;-76
2023/04/01 08:53:03;;;;;;;3.60;3.00;;;11.30;97.40;;;;;;5048597;28;20375;-76
2023/04/01 08:56:10;;;;;;;3.63;3.33;;;11.40;93.70;;;;;;5038985;28;20450;-78
2023/04/01 08:58:54;;;;;;;5.07;3.70;;;11.40;93.60;;;;;;5052402;28;20452;-76
2023/04/01 09:01:30;;;;;;;3.40;3.20;;;11.50;94.40;;;;;;5046430;28;20798;-77
2023/04/01 09:04:11;;;;;;;6.50;4.20;;;11.50;96.70;;;;;;5033744;28;20387;-77
2023/04/01 09:06:42;;;;;;;5.10;4.60;;;11.60;94.10;;;;;;5035751;28;20405;-78
2023/04/01 09:09:45;;;;;;;5.78;4.55;;;11.60;91.70;;;;;;5034423;28;20498;-78
2023/04/01 09:12:12;;;;;;;5.30;4.80;;;11.60;90.10;;;;;;5034389;28;20437;-76
2023/04/01 09:15:15;;;;;;;5.40;4.90;;;11.60;93.80;;;;;;5037586;28;20391;-77
2023/04/01 09:17:59;;;;;;;5.90;5.30;;;11.60;88.30;;;;;;5055348;22;20482;-74
2023/04/01 09:21:02;;;;;;;5.82;5.25;;;11.60;86.90;;;;;;5058159;28;20401;-74
2023/04/01 09:23:39;;;;;;;6.53;5.82;;;11.60;86.40;;;;;;5058938;28;20382;-75
2023/04/01 09:26:34;;;;;;;6.50;5.78;;;11.70;85.40;;;;;;5057974;28;20757;-74
2023/04/01 09:29:38;;;;;;;7.53;6.15;;;11.80;82.30;;;;;;5056283;28;20408;-73
2023/04/01 09:32:09;;;;;;;6.82;6.13;;;11.90;86.70;;;;;;5056746;28;20388;-74
2023/04/01 09:34:51;;;;;;;7.28;6.30;;;12.10;83.70;;;;;;5055038;28;20409;-74
2023/04/01 09:37:17;;;;;;;6.53;5.88;;;12.10;82.20;;;;;;5050798;28;20391;-73
2023/04/01 09:40:04;;;;;;;6.63;5.60;;;12.30;83.00;;;;;;5054630;28;20484;-73
2023/04/01 09:42:43;;;;;;;6.22;5.68;;;12.20;80.50;;;;;;5052708;28;20395;-73
2023/04/01 09:45:23;;;;;;;7.20;6.50;;;12.10;82.60;;;;;;5035398;28;20569;-73
2023/04/01 09:48:02;;;;;;;10.40;6.45;;;12.10;83.10;;;;;;5038469;28;20391;-73
2023/04/01 09:50:47;;;;;;;8.02;6.90;;;12.00;82.60;;;;;;5038545;28;20482;-73
2023/04/01 09:53:41;;;;;;;8.00;7.20;;;12.00;85.40;;;;;;5056760;28;20461;-73
2023/04/01 09:56:38;;;;;;;10.15;7.40;;;12.10;83.30;;;;;;5057673;28;20459;-75
2023/04/01 09:59:37;;;;;;;10.20;7.47;;;12.10;83.70;;;;;;5062142;28;20412;-71
2023/04/01 10:02:21;;;;;;;9.00;7.90;;;12.10;83.90;;;;;;5060737;28;20439;-74
2023/04/01 10:05:33;;;;;;;10.05;8.43;;;12.10;82.10;;;;;;5055801;28;20386;-72
2023/04/01 10:08:08;;;;;;;10.80;8.60;;;12.10;81.20;;;;;;5039756;28;20418;-71
2023/04/01 10:10:58;;;;;;;10.70;9.13;;;12.00;81.80;;;;;;5037445;28;20863;-71
2023/04/01 10:13:38;;;;;;;10.68;9.27;;;12.00;84.50;;;;;;5035297;28;20401;-72
2023/04/01 10:16:33;;;;;;;11.82;9.00;;;12.00;83.90;;;;;;5048022;28;20382;-72
2023/04/01 10:19:28;;;;;;;11.30;9.60;;;12.00;83.50;;;;;;5033981;28;20412;-71
2023/04/01 10:22:03;;;;;;;13.47;9.43;;;12.00;86.90;;;;;;5048831;28;20436;-70
2023/04/01 10:25:07;;;;;;;11.15;8.90;;;11.90;86.70;;;;;;5048647;28;20385;-72
2023/04/01 10:27:37;;;;;;;10.80;8.70;;;12.00;86.60;;;;;;5041372;28;20464;-72
2023/04/01 10:30:06;;;;;;;11.93;9.45;;;11.90;89.60;;;;;;5057500;28;20394;-71
2023/04/01 10:32:50;;;;;;;12.57;9.80;;;11.90;90.90;;;;;;5049626;28;20374;-71
2023/04/01 10:36:00;;;;;;;9.70;8.70;;;11.80;93.30;;;;;;5048963;28;20389;-70
2023/04/01 10:38:46;;;;;;;9.35;8.38;;;11.80;93.20;;;;;;4998906;28;20874;-71
2023/04/01 10:41:12;;;;;;;9.48;8.45;;;11.70;94.00;;;;;;5045786;28;20400;-71
2023/04/01 10:43:57;;;;;;;11.15;8.98;;;11.70;93.40;;;;;;5052175;28;20377;-72
2023/04/01 10:46:44;;;;;;;10.07;7.70;;;11.70;95.20;;;;;;5051684;28;20413;-72
2023/04/01 10:49:41;;;;;;;9.40;8.13;;;11.60;93.70;;;;;;5051370;28;20450;-72
2023/04/01 10:52:45;;;;;;;8.73;7.55;;;11.60;94.40;;;;;;5042126;28;20381;-70
2023/04/01 10:55:34;;;;;;;8.10;7.30;;;11.60;95.00;;;;;;5014671;28;20486;-71
2023/04/01 10:58:27;;;;;;;8.73;7.03;;;11.60;96.80;;;;;;5029882;28;20506;-72
2023/04/01 11:01:03;;;;;;;7.50;6.72;;;11.60;97.60;;;;;;5029460;28;20411;-71
2023/04/01 11:03:46;;;;;;;7.87;7.10;;;11.70;98.00;;;;;;5029468;28;20391;-71
2023/04/01 11:06:31;;;;;;;7.45;6.75;;;11.60;99.90;;;;;;5029582;28;20403;-71
2023/04/01 11:09:42;;;;;;;7.63;6.45;;;11.60;99.10;;;;;;5030373;28;20389;-71
2023/04/01 11:12:45;;;;;;;7.35;6.65;;;11.60;98.50;;;;;;5028336;28;20391;-71
2023/04/01 11:15:22;;;;;;;8.35;7.43;;;11.70;99.50;;;;;;5030754;28;20393;-72
2023/04/01 11:18:04;;;;;;;11.05;7.00;;;11.90;96.20;;;;;;5030660;28;20395;-71
2023/04/01 11:20:54;;;;;;;7.50;6.80;;;12.00;96.00;;;;;;5030712;28;20401;-72
2023/04/01 11:23:44;;;;;;;7.90;7.07;;;12.30;89.90;;;;;;5030720;28;20930;-72
2023/04/01 11:26:33;;;;;;;9.50;6.82;;;12.40;90.30;;;;;;5032178;28;21001;-71
2023/04/01 11:29:38;;;;;;;12.43;8.05;;;12.50;86.00;;;;;;5035314;28;20371;-71
2023/04/01 11:32:24;;;;;;;9.32;7.45;;;12.50;87.50;;;;;;5003590;28;20466;-73
2023/04/01 11:35:37;;;;;;;8.70;7.50;;;12.40;90.80;;;;;;5033767;28;20380;-70
2023/04/01 11:38:35;;;;;;;8.30;7.40;;;12.30;89.30;;;;;;4992050;28;20864;-72
2023/04/01 11:41:18;;;;;;;7.70;6.90;;;12.30;89.60;;;;;;5033234;28;20375;-71
2023/04/01 11:43:55;;;;;;;8.63;6.95;;;12.20;91.20;;;;;;5033788;28;20461;-72
2023/04/01 11:46:33;;;;;;;7.68;6.88;;;12.10;89.50;;;;;;5034265;28;20884;-70
2023/04/01 11:49:39;;;;;;;9.00;7.18;;;12.10;92.70;;;;;;5033418;28;20475;-70
2023/04/01 11:52:31;;;;;;;8.25;6.63;;;12.20;90.10;;;;;;5032886;28;20378;-72
2023/04/01 11:55:21;;;;;;;7.18;6.50;;;12.30;87.50;;;;;;5035975;28;20459;-72
2023/04/01 11:58:23;;;;;;;8.43;7.60;;;12.20;87.80;;;;;;5035782;28;20428;-73
2023/04/01 12:01:19;;;;;;;7.00;6.40;;;12.30;87.30;;;;;;5036005;28;20392;-72
2023/04/01 12:04:22;;;;;;;7.45;6.72;;;12.30;84.70;;;;;;5036073;28;20410;-72
2023/04/01 12:07:03;;;;;;;8.63;7.20;;;12.30;88.10;;;;;;5040305;28;20445;-72
2023/04/01 12:09:46;;;;;;;7.60;6.90;;;12.40;82.20;;;;;;5047532;28;20374;-73
2023/04/01 12:12:42;;;;;;;8.82;8.02;;;12.50;85.10;;;;;;5043594;28;20447;-72
2023/04/01 12:15:32;;;;;;;8.20;7.40;;;12.60;85.40;;;;;;5033212;28;20436;-72
2023/04/01 12:18:14;;;;;;;9.30;7.47;;;12.60;81.70;;;;;;5032560;28;20387;-71
2023/04/01 12:20:50;;;;;;;10.17;8.27;;;12.60;82.70;;;;;;5033006;28;20402;-70
2023/04/01 12:23:58;;;;;;;9.18;8.00;;;12.80;80.80;;;;;;5032992;28;20367;-71
2023/04/01 12:26:36;;;;;;;10.05;8.05;;;12.90;76.10;;;;;;5032647;28;20438;-71
2023/04/01 12:29:14;;;;;;;11.20;9.00;;;13.00;76.10;;;;;;5032491;28;20887;-71
2023/04/01 12:32:10;;;;;;;9.40;8.15;;;13.20;72.80;;;;;;5032125;28;20390;-71
2023/04/01 12:34:51;;;;;;;9.15;8.25;;;13.40;71.80;;;;;;5032449;28;20386;-70
2023/04/01 12:37:50;;;;;;;10.00;8.13;;;13.60;70.20;;;;;;5030623;28;20395;-70
2023/04/01 12:40:43;;;;;;;11.00;9.77;;;13.30;69.40;;;;;;5032295;28;20721;-72
2023/04/01 12:43:25;;;;;;;9.15;8.25;;;13.20;74.10;;;;;;5037688;28;20980;-70
2023/04/01 12:46:13;;;;;;;10.77;8.50;;;13.20;74.60;;;;;;5052087;28;20409;-70
2023/04/01 12:49:05;;;;;;;10.05;7.82;;;13.50;69.70;;;;;;5049910;28;20731;-71
2023/04/01 12:52:08;;;;;;;7.90;7.10;;;13.50;69.30;;;;;;5047201;28;20397;-71
2023/04/01 12:55:06;;;;;;;8.07;6.85;;;13.50;68.70;;;;;;5052216;28;20721;-71
2023/04/01 12:57:50;;;;;;;10.68;7.30;;;13.40;67.40;;;;;;5052076;28;20374;-71
2023/04/01 13:00:22;;;;;;;7.97;7.00;;;13.30;68.60;;;;;;5052310;28;20409;-71
2023/04/01 13:03:06;;;;;;;7.20;6.50;;;13.20;71.30;;;;;;5052652;28;20416;-72
2023/04/01 13:05:34;;;;;;;7.60;6.90;;;13.00;71.90;;;;;;5052173;28;20409;-72
2023/04/01 13:08:15;;;;;;;7.93;6.70;;;12.90;77.30;;;;;;5053596;28;20453;-72
2023/04/01 13:11:09;;;;;;;7.95;6.28;;;12.70;74.90;;;;;;5052845;28;20480;-72
2023/04/01 13:14:09;;;;;;;7.20;6.40;;;12.50;76.50;;;;;;5044492;28;20401;-71
2023/04/01 13:16:48;;;;;;;7.47;6.70;;;12.30;78.70;;;;;;5051822;28;20369;-71
2023/04/01 13:19:18;;;;;;;7.57;6.50;;;12.20;79.40;;;;;;5052530;28;20405;-71
2023/04/01 13:22:06;;;;;;;7.78;6.93;;;12.20;82.60;;;;;;5052221;28;20416;-72
2023/04/01 13:24:43;;;;;;;7.35;6.75;;;12.20;82.70;;;;;;5043426;28;20439;-75
2023/04/01 13:27:14;;;;;;;7.80;6.90;;;12.30;84.90;;;;;;5051135;28;20432;-77
2023/04/01 13:30:04;;;;;;;7.32;6.63;;;12.30;84.30;;;;;;5045534;28;20858;-76
2023/04/01 13:32:56;;;;;;;7.45;6.40;;;12.20;85.70;;;;;;5034820;28;20419;-75
2023/04/01 13:35:22;;;;;;;6.80;6.10;;;12.20;87.20;;;;;;5037973;28;20416;-72
2023/04/01 13:38:09;;;;;;;7.70;6.18;;;12.10;85.60;;;;;;5047076;28;20391;-73